sensor_id;sensor_type;location;lat;lon;timestamp;noise_LAeq;noise_LA_min;noise_LA_max;noise_LA01;noise_LA95
69619;Laerm;57653;51.434;5.984;2022-07-06T00:00:08;37.50;34.61;45.63;;
69619;Laerm;57653;51.434;5.984;2022-07-06T00:00:20;36.82;33.93;41.16;;
69619;Laerm;57653;51.434;5.984;2022-07-06T00:00:30;37.42;34.04;42.50;;
69619;Laerm;57653;51.434;5.984;2022-07-06T00:00:40;37.20;34.26;41.13;;
69619;Laerm;57653;51.434;5.984;2022-07-06T00:00:50;37.25;34.65;41.62;;
69619;Laerm;57653;51.434;5.984;2022-07-06T00:01:01;36.59;33.94;40.15;;
69619;Laerm;57653;51.434;5.984;2022-07-06T00:01:11;37.79;35.12;41.22;;
69619;Laerm;57653;51.434;5.984;2022-07-06T00:01:21;35.73;32.49;39.60;;
69619;Laerm;57653;51.434;5.984;2022-07-06T00:01:31;34.93;32.59;38.80;;
69619;Laerm;57653;51.434;5.984;2022-07-06T00:01:42;35.65;32.48;40.24;;
69619;Laerm;57653;51.434;5.984;2022-07-06T00:01:52;35.76;33.05;39.17;;
69619;Laerm;57653;51.434;5.984;2022-07-06T00:02:02;36.16;33.79;39.76;;
69619;Laerm;57653;51.434;5.984;2022-07-06T00:02:13;36.15;33.40;41.59;;
69619;Laerm;57653;51.434;5.984;2022-07-06T00:02:24;35.87;33.03;39.41;;
69619;Laerm;57653;51.434;5.984;2022-07-06T00:02:34;36.78;33.38;41.94;;
69619;Laerm;57653;51.434;5.984;2022-07-06T00:02:44;37.15;33.73;40.69;;
69619;Laerm;57653;51.434;5.984;2022-07-06T00:02:55;36.28;33.62;40.02;;
69619;Laerm;57653;51.434;5.984;2022-07-06T00:03:05;37.59;34.60;40.71;;
69619;Laerm;57653;51.434;5.984;2022-07-06T00:03:15;37.24;33.86;40.23;;
69619;Laerm;57653;51.434;5.984;2022-07-06T00:03:26;37.94;34.77;40.57;;
69619;Laerm;57653;51.434;5.984;2022-07-06T00:03:36;36.90;34.14;39.87;;
69619;Laerm;57653;51.434;5.984;2022-07-06T00:03:46;36.64;34.26;40.39;;
69619;Laerm;57653;51.434;5.984;2022-07-06T00:03:56;37.67;34.78;41.26;;
69619;Laerm;57653;51.434;5.984;2022-07-06T00:04:07;37.47;34.07;40.34;;
69619;Laerm;57653;51.434;5.984;2022-07-06T00:04:17;37.20;33.57;40.02;;
69619;Laerm;57653;51.434;5.984;2022-07-06T00:04:28;36.84;34.21;40.06;;
69619;Laerm;57653;51.434;5.984;2022-07-06T00:04:38;36.71;34.06;40.05;;
69619;Laerm;57653;51.434;5.984;2022-07-06T00:04:48;36.99;34.58;40.51;;
69619;Laerm;57653;51.434;5.984;2022-07-06T00:04:59;36.81;33.98;40.87;;
69619;Laerm;57653;51.434;5.984;2022-07-06T00:05:09;37.12;34.29;48.98;;
69619;Laerm;57653;51.434;5.984;2022-07-06T00:05:19;37.63;34.20;44.67;;
69619;Laerm;57653;51.434;5.984;2022-07-06T00:05:30;37.12;34.18;40.87;;
69619;Laerm;57653;51.434;5.984;2022-07-06T00:05:40;37.63;34.08;40.26;;
69619;Laerm;57653;51.434;5.984;2022-07-06T00:05:50;38.05;35.31;41.09;;
69619;Laerm;57653;51.434;5.984;2022-07-06T00:06:01;37.42;34.77;41.13;;
69619;Laerm;57653;51.434;5.984;2022-07-06T00:06:11;36.48;33.41;40.45;;
69619;Laerm;57653;51.434;5.984;2022-07-06T00:06:22;36.46;33.35;39.84;;
69619;Laerm;57653;51.434;5.984;2022-07-06T00:06:32;36.85;33.90;40.43;;
69619;Laerm;57653;51.434;5.984;2022-07-06T00:06:43;37.37;34.33;42.77;;
69619;Laerm;57653;51.434;5.984;2022-07-06T00:06:53;37.16;33.81;40.10;;
69619;Laerm;57653;51.434;5.984;2022-07-06T00:07:03;36.63;34.07;40.89;;
69619;Laerm;57653;51.434;5.984;2022-07-06T00:07:13;37.15;34.15;40.97;;
69619;Laerm;57653;51.434;5.984;2022-07-06T00:07:24;37.04;33.90;39.94;;
69619;Laerm;57653;51.434;5.984;2022-07-06T00:07:34;37.56;34.43;40.73;;
69619;Laerm;57653;51.434;5.984;2022-07-06T00:07:44;37.85;34.31;41.25;;
69619;Laerm;57653;51.434;5.984;2022-07-06T00:07:55;37.36;34.50;40.26;;
69619;Laerm;57653;51.434;5.984;2022-07-06T00:08:05;36.06;33.65;38.61;;
69619;Laerm;57653;51.434;5.984;2022-07-06T00:08:15;37.36;34.16;40.61;;
69619;Laerm;57653;51.434;5.984;2022-07-06T00:08:25;37.61;34.93;40.98;;
69619;Laerm;57653;51.434;5.984;2022-07-06T00:08:36;37.22;34.16;40.55;;
69619;Laerm;57653;51.434;5.984;2022-07-06T00:08:46;38.82;34.79;42.27;;
69619;Laerm;57653;51.434;5.984;2022-07-06T00:08:56;37.28;34.50;40.95;;
69619;Laerm;57653;51.434;5.984;2022-07-06T00:09:07;37.63;33.25;41.23;;
69619;Laerm;57653;51.434;5.984;2022-07-06T00:09:17;37.34;34.34;40.18;;
69619;Laerm;57653;51.434;5.984;2022-07-06T00:09:27;37.01;33.20;40.30;;
69619;Laerm;57653;51.434;5.984;2022-07-06T00:09:37;37.22;32.59;40.39;;
69619;Laerm;57653;51.434;5.984;2022-07-06T00:09:48;36.85;33.52;41.09;;
69619;Laerm;57653;51.434;5.984;2022-07-06T00:09:58;36.19;33.32;40.70;;
69619;Laerm;57653;51.434;5.984;2022-07-06T00:10:08;36.54;33.73;39.66;;
69619;Laerm;57653;51.434;5.984;2022-07-06T00:10:18;36.83;33.16;39.99;;
69619;Laerm;57653;51.434;5.984;2022-07-06T00:10:29;36.66;33.60;40.39;;
69619;Laerm;57653;51.434;5.984;2022-07-06T00:10:39;38.55;33.71;43.87;;
69619;Laerm;57653;51.434;5.984;2022-07-06T00:10:49;38.63;34.59;42.49;;
69619;Laerm;57653;51.434;5.984;2022-07-06T00:10:59;37.99;34.17;41.96;;
69619;Laerm;57653;51.434;5.984;2022-07-06T00:11:10;39.12;34.81;42.45;;
69619;Laerm;57653;51.434;5.984;2022-07-06T00:11:20;38.23;35.09;41.77;;
69619;Laerm;57653;51.434;5.984;2022-07-06T00:11:31;37.55;33.73;41.85;;
69619;Laerm;57653;51.434;5.984;2022-07-06T00:11:41;36.80;34.03;40.67;;
69619;Laerm;57653;51.434;5.984;2022-07-06T00:11:51;39.76;35.03;43.20;;
69619;Laerm;57653;51.434;5.984;2022-07-06T00:12:03;41.23;37.09;43.96;;
69619;Laerm;57653;51.434;5.984;2022-07-06T00:12:13;38.71;33.84;42.55;;
69619;Laerm;57653;51.434;5.984;2022-07-06T00:12:23;39.20;35.12;42.64;;
69619;Laerm;57653;51.434;5.984;2022-07-06T00:12:34;37.91;34.14;43.89;;
69619;Laerm;57653;51.434;5.984;2022-07-06T00:12:44;37.76;34.43;41.33;;
69619;Laerm;57653;51.434;5.984;2022-07-06T00:12:57;36.18;33.35;41.38;;
69619;Laerm;57653;51.434;5.984;2022-07-06T00:13:07;37.51;34.05;40.77;;
69619;Laerm;57653;51.434;5.984;2022-07-06T00:13:17;38.15;35.09;40.72;;
69619;Laerm;57653;51.434;5.984;2022-07-06T00:13:27;37.27;33.83;40.52;;
69619;Laerm;57653;51.434;5.984;2022-07-06T00:13:38;37.25;34.63;41.10;;
69619;Laerm;57653;51.434;5.984;2022-07-06T00:13:48;38.11;35.21;43.06;;
69619;Laerm;57653;51.434;5.984;2022-07-06T00:13:58;37.83;33.83;40.55;;
69619;Laerm;57653;51.434;5.984;2022-07-06T00:14:08;37.89;35.21;41.05;;
69619;Laerm;57653;51.434;5.984;2022-07-06T00:14:19;37.43;34.67;40.48;;
69619;Laerm;57653;51.434;5.984;2022-07-06T00:14:29;37.28;34.28;40.11;;
69619;Laerm;57653;51.434;5.984;2022-07-06T00:14:39;36.92;33.64;40.81;;
69619;Laerm;57653;51.434;5.984;2022-07-06T00:14:50;37.17;33.86;39.97;;
69619;Laerm;57653;51.434;5.984;2022-07-06T00:15:00;38.04;34.83;41.32;;
69619;Laerm;57653;51.434;5.984;2022-07-06T00:15:10;37.52;34.65;41.02;;
69619;Laerm;57653;51.434;5.984;2022-07-06T00:15:20;37.76;34.47;41.45;;
69619;Laerm;57653;51.434;5.984;2022-07-06T00:15:31;37.36;34.15;41.22;;
69619;Laerm;57653;51.434;5.984;2022-07-06T00:15:41;36.83;33.66;40.32;;
69619;Laerm;57653;51.434;5.984;2022-07-06T00:15:51;37.28;34.94;40.77;;
69619;Laerm;57653;51.434;5.984;2022-07-06T00:16:02;37.35;34.61;41.23;;
69619;Laerm;57653;51.434;5.984;2022-07-06T00:16:12;37.20;33.92;40.29;;
69619;Laerm;57653;51.434;5.984;2022-07-06T00:16:22;38.10;34.07;42.18;;
69619;Laerm;57653;51.434;5.984;2022-07-06T00:16:33;38.10;34.69;41.93;;
69619;Laerm;57653;51.434;5.984;2022-07-06T00:16:43;37.20;33.16;42.23;;
69619;Laerm;57653;51.434;5.984;2022-07-06T00:16:53;36.60;33.36;41.01;;
69619;Laerm;57653;51.434;5.984;2022-07-06T00:17:04;36.05;33.62;40.08;;
69619;Laerm;57653;51.434;5.984;2022-07-06T00:17:14;35.90;33.81;40.14;;
69619;Laerm;57653;51.434;5.984;2022-07-06T00:17:25;37.97;33.99;41.01;;
69619;Laerm;57653;51.434;5.984;2022-07-06T00:17:35;37.28;34.12;41.33;;
69619;Laerm;57653;51.434;5.984;2022-07-06T00:17:45;37.47;34.16;41.07;;
69619;Laerm;57653;51.434;5.984;2022-07-06T00:17:56;37.78;34.56;41.57;;
69619;Laerm;57653;51.434;5.984;2022-07-06T00:18:06;36.55;33.57;40.55;;
69619;Laerm;57653;51.434;5.984;2022-07-06T00:18:16;37.66;34.57;44.49;;
69619;Laerm;57653;51.434;5.984;2022-07-06T00:18:26;38.14;33.94;41.47;;
69619;Laerm;57653;51.434;5.984;2022-07-06T00:18:37;37.82;34.16;42.08;;
69619;Laerm;57653;51.434;5.984;2022-07-06T00:18:47;37.07;34.00;40.81;;
69619;Laerm;57653;51.434;5.984;2022-07-06T00:18:57;37.55;33.77;40.91;;
69619;Laerm;57653;51.434;5.984;2022-07-06T00:19:07;36.36;33.32;40.35;;
69619;Laerm;57653;51.434;5.984;2022-07-06T00:19:18;36.45;33.65;41.60;;
69619;Laerm;57653;51.434;5.984;2022-07-06T00:19:28;36.71;33.54;41.18;;
69619;Laerm;57653;51.434;5.984;2022-07-06T00:19:38;35.98;33.26;40.17;;
69619;Laerm;57653;51.434;5.984;2022-07-06T00:19:48;34.84;32.85;39.09;;
69619;Laerm;57653;51.434;5.984;2022-07-06T00:19:59;36.01;32.45;40.89;;
69619;Laerm;57653;51.434;5.984;2022-07-06T00:20:09;35.28;32.77;40.61;;
69619;Laerm;57653;51.434;5.984;2022-07-06T00:20:20;35.78;32.31;42.61;;
69619;Laerm;57653;51.434;5.984;2022-07-06T00:20:30;35.19;32.77;39.95;;
69619;Laerm;57653;51.434;5.984;2022-07-06T00:20:40;34.58;32.41;41.07;;
69619;Laerm;57653;51.434;5.984;2022-07-06T00:20:50;34.28;32.55;37.57;;
69619;Laerm;57653;51.434;5.984;2022-07-06T00:21:01;35.97;32.64;42.60;;
69619;Laerm;57653;51.434;5.984;2022-07-06T00:21:11;35.32;32.83;38.87;;
69619;Laerm;57653;51.434;5.984;2022-07-06T00:21:21;35.73;32.92;39.82;;
69619;Laerm;57653;51.434;5.984;2022-07-06T00:21:32;35.02;32.98;39.73;;
69619;Laerm;57653;51.434;5.984;2022-07-06T00:21:42;36.43;33.24;40.62;;
69619;Laerm;57653;51.434;5.984;2022-07-06T00:21:52;36.73;33.82;42.01;;
69619;Laerm;57653;51.434;5.984;2022-07-06T00:22:02;36.16;33.11;40.15;;
69619;Laerm;57653;51.434;5.984;2022-07-06T00:22:13;35.08;32.78;39.24;;
69619;Laerm;57653;51.434;5.984;2022-07-06T00:22:23;36.56;32.91;41.40;;
69619;Laerm;57653;51.434;5.984;2022-07-06T00:22:33;36.52;33.98;40.74;;
69619;Laerm;57653;51.434;5.984;2022-07-06T00:22:43;36.82;34.04;41.38;;
69619;Laerm;57653;51.434;5.984;2022-07-06T00:22:54;36.20;33.35;39.58;;
69619;Laerm;57653;51.434;5.984;2022-07-06T00:23:07;36.46;33.96;42.03;;
69619;Laerm;57653;51.434;5.984;2022-07-06T00:23:17;37.53;33.84;40.46;;
69619;Laerm;57653;51.434;5.984;2022-07-06T00:23:28;36.53;33.84;39.56;;
69619;Laerm;57653;51.434;5.984;2022-07-06T00:23:38;36.24;33.69;39.86;;
69619;Laerm;57653;51.434;5.984;2022-07-06T00:23:48;36.50;33.76;40.08;;
69619;Laerm;57653;51.434;5.984;2022-07-06T00:23:59;38.19;34.15;41.55;;
69619;Laerm;57653;51.434;5.984;2022-07-06T00:24:09;36.43;33.91;40.97;;
69619;Laerm;57653;51.434;5.984;2022-07-06T00:24:20;35.71;33.11;39.75;;
69619;Laerm;57653;51.434;5.984;2022-07-06T00:24:30;35.55;33.52;39.42;;
69619;Laerm;57653;51.434;5.984;2022-07-06T00:24:41;37.18;34.10;41.15;;
69619;Laerm;57653;51.434;5.984;2022-07-06T00:24:51;37.86;33.42;42.19;;
69619;Laerm;57653;51.434;5.984;2022-07-06T00:25:01;38.38;34.36;42.75;;
69619;Laerm;57653;51.434;5.984;2022-07-06T00:25:11;37.09;34.24;40.84;;
69619;Laerm;57653;51.434;5.984;2022-07-06T00:25:22;36.56;33.97;41.15;;
69619;Laerm;57653;51.434;5.984;2022-07-06T00:25:32;36.59;33.88;40.77;;
69619;Laerm;57653;51.434;5.984;2022-07-06T00:25:42;37.24;33.47;45.66;;
69619;Laerm;57653;51.434;5.984;2022-07-06T00:25:52;37.00;33.91;40.39;;
69619;Laerm;57653;51.434;5.984;2022-07-06T00:26:03;37.02;34.15;40.93;;
69619;Laerm;57653;51.434;5.984;2022-07-06T00:26:13;37.57;34.79;40.87;;
69619;Laerm;57653;51.434;5.984;2022-07-06T00:26:23;38.21;34.66;41.94;;
69619;Laerm;57653;51.434;5.984;2022-07-06T00:26:33;39.16;35.10;42.19;;
69619;Laerm;57653;51.434;5.984;2022-07-06T00:26:44;38.51;35.04;42.26;;
69619;Laerm;57653;51.434;5.984;2022-07-06T00:26:55;38.91;35.44;43.12;;
69619;Laerm;57653;51.434;5.984;2022-07-06T00:27:05;40.38;35.05;49.27;;
69619;Laerm;57653;51.434;5.984;2022-07-06T00:27:15;38.05;34.67;42.66;;
69619;Laerm;57653;51.434;5.984;2022-07-06T00:27:25;37.38;34.26;40.43;;
69619;Laerm;57653;51.434;5.984;2022-07-06T00:27:35;36.83;33.98;44.85;;
69619;Laerm;57653;51.434;5.984;2022-07-06T00:27:46;37.23;34.61;45.92;;
69619;Laerm;57653;51.434;5.984;2022-07-06T00:27:56;38.00;34.05;41.48;;
69619;Laerm;57653;51.434;5.984;2022-07-06T00:28:06;39.03;34.83;42.28;;
69619;Laerm;57653;51.434;5.984;2022-07-06T00:28:16;39.02;35.41;42.05;;
69619;Laerm;57653;51.434;5.984;2022-07-06T00:28:27;38.93;35.29;42.02;;
69619;Laerm;57653;51.434;5.984;2022-07-06T00:28:37;37.66;34.58;41.56;;
69619;Laerm;57653;51.434;5.984;2022-07-06T00:28:47;38.27;34.72;40.82;;
69619;Laerm;57653;51.434;5.984;2022-07-06T00:28:58;38.69;35.52;41.80;;
69619;Laerm;57653;51.434;5.984;2022-07-06T00:29:08;38.79;36.01;43.30;;
69619;Laerm;57653;51.434;5.984;2022-07-06T00:29:18;38.97;35.72;41.34;;
69619;Laerm;57653;51.434;5.984;2022-07-06T00:29:29;38.83;35.49;41.73;;
69619;Laerm;57653;51.434;5.984;2022-07-06T00:29:40;38.79;35.09;44.28;;
69619;Laerm;57653;51.434;5.984;2022-07-06T00:29:53;39.26;35.85;49.35;;
69619;Laerm;57653;51.434;5.984;2022-07-06T00:30:04;38.34;34.84;42.47;;
69619;Laerm;57653;51.434;5.984;2022-07-06T00:30:14;38.52;35.10;41.90;;
69619;Laerm;57653;51.434;5.984;2022-07-06T00:30:24;38.81;35.33;45.24;;
69619;Laerm;57653;51.434;5.984;2022-07-06T00:30:35;39.03;34.98;42.93;;
69619;Laerm;57653;51.434;5.984;2022-07-06T00:30:45;38.94;35.45;41.45;;
69619;Laerm;57653;51.434;5.984;2022-07-06T00:30:55;39.12;35.49;43.09;;
69619;Laerm;57653;51.434;5.984;2022-07-06T00:31:06;38.85;36.07;42.87;;
69619;Laerm;57653;51.434;5.984;2022-07-06T00:31:16;39.22;36.17;42.34;;
69619;Laerm;57653;51.434;5.984;2022-07-06T00:31:26;39.21;35.87;42.95;;
69619;Laerm;57653;51.434;5.984;2022-07-06T00:31:36;38.73;35.21;41.84;;
69619;Laerm;57653;51.434;5.984;2022-07-06T00:31:46;38.69;35.75;42.03;;
69619;Laerm;57653;51.434;5.984;2022-07-06T00:31:57;38.99;35.88;42.27;;
69619;Laerm;57653;51.434;5.984;2022-07-06T00:32:07;38.50;35.89;41.71;;
69619;Laerm;57653;51.434;5.984;2022-07-06T00:32:18;39.31;35.57;42.73;;
69619;Laerm;57653;51.434;5.984;2022-07-06T00:32:28;39.14;36.49;42.17;;
69619;Laerm;57653;51.434;5.984;2022-07-06T00:32:38;38.99;35.58;41.38;;
69619;Laerm;57653;51.434;5.984;2022-07-06T00:32:49;39.33;36.54;42.35;;
69619;Laerm;57653;51.434;5.984;2022-07-06T00:32:59;38.78;35.55;41.37;;
69619;Laerm;57653;51.434;5.984;2022-07-06T00:33:10;38.73;35.79;41.32;;
69619;Laerm;57653;51.434;5.984;2022-07-06T00:33:20;39.00;36.36;42.64;;
69619;Laerm;57653;51.434;5.984;2022-07-06T00:33:31;39.53;36.63;42.69;;
69619;Laerm;57653;51.434;5.984;2022-07-06T00:33:41;39.15;35.99;43.62;;
69619;Laerm;57653;51.434;5.984;2022-07-06T00:33:51;38.85;35.53;42.05;;
69619;Laerm;57653;51.434;5.984;2022-07-06T00:34:02;39.25;35.70;42.98;;
69619;Laerm;57653;51.434;5.984;2022-07-06T00:34:12;38.92;36.19;41.55;;
69619;Laerm;57653;51.434;5.984;2022-07-06T00:34:23;39.13;35.98;42.12;;
69619;Laerm;57653;51.434;5.984;2022-07-06T00:34:33;38.68;35.31;42.47;;
69619;Laerm;57653;51.434;5.984;2022-07-06T00:34:45;38.03;34.89;40.69;;
69619;Laerm;57653;51.434;5.984;2022-07-06T00:34:55;38.76;36.20;41.71;;
69619;Laerm;57653;51.434;5.984;2022-07-06T00:35:05;38.85;35.74;42.36;;
69619;Laerm;57653;51.434;5.984;2022-07-06T00:35:16;39.13;36.40;41.91;;
69619;Laerm;57653;51.434;5.984;2022-07-06T00:35:26;38.95;36.38;41.55;;
69619;Laerm;57653;51.434;5.984;2022-07-06T00:35:37;39.16;35.54;42.22;;
69619;Laerm;57653;51.434;5.984;2022-07-06T00:35:47;38.72;36.20;41.55;;
69619;Laerm;57653;51.434;5.984;2022-07-06T00:35:58;38.14;35.35;41.36;;
69619;Laerm;57653;51.434;5.984;2022-07-06T00:36:08;39.09;35.61;42.86;;
69619;Laerm;57653;51.434;5.984;2022-07-06T00:36:18;38.56;35.38;41.75;;
69619;Laerm;57653;51.434;5.984;2022-07-06T00:36:28;38.83;36.12;42.32;;
69619;Laerm;57653;51.434;5.984;2022-07-06T00:36:39;39.08;36.40;42.94;;
69619;Laerm;57653;51.434;5.984;2022-07-06T00:36:49;38.63;36.05;43.12;;
69619;Laerm;57653;51.434;5.984;2022-07-06T00:36:59;38.96;36.07;42.22;;
69619;Laerm;57653;51.434;5.984;2022-07-06T00:37:09;39.10;35.91;42.16;;
69619;Laerm;57653;51.434;5.984;2022-07-06T00:37:19;39.29;35.98;42.48;;
69619;Laerm;57653;51.434;5.984;2022-07-06T00:37:30;38.80;35.85;41.10;;
69619;Laerm;57653;51.434;5.984;2022-07-06T00:37:40;38.86;35.83;42.95;;
69619;Laerm;57653;51.434;5.984;2022-07-06T00:37:50;38.50;35.16;41.74;;
69619;Laerm;57653;51.434;5.984;2022-07-06T00:38:00;39.58;36.85;43.12;;
69619;Laerm;57653;51.434;5.984;2022-07-06T00:38:11;40.73;38.14;44.07;;
69619;Laerm;57653;51.434;5.984;2022-07-06T00:38:21;42.06;39.50;44.45;;
69619;Laerm;57653;51.434;5.984;2022-07-06T00:38:31;45.61;40.62;49.84;;
69619;Laerm;57653;51.434;5.984;2022-07-06T00:38:42;60.07;49.08;65.84;;
69619;Laerm;57653;51.434;5.984;2022-07-06T00:38:52;63.26;59.26;67.50;;
69619;Laerm;57653;51.434;5.984;2022-07-06T00:39:02;63.72;59.83;67.42;;
69619;Laerm;57653;51.434;5.984;2022-07-06T00:39:12;59.98;43.79;65.48;;
69619;Laerm;57653;51.434;5.984;2022-07-06T00:39:26;40.58;36.86;46.65;;
69619;Laerm;57653;51.434;5.984;2022-07-06T00:39:39;38.88;36.03;41.61;;
69619;Laerm;57653;51.434;5.984;2022-07-06T00:39:50;39.37;35.98;42.72;;
69619;Laerm;57653;51.434;5.984;2022-07-06T00:40:00;39.09;36.01;41.50;;
69619;Laerm;57653;51.434;5.984;2022-07-06T00:40:10;39.47;36.21;42.79;;
69619;Laerm;57653;51.434;5.984;2022-07-06T00:40:21;39.02;35.67;42.25;;
69619;Laerm;57653;51.434;5.984;2022-07-06T00:40:31;39.14;35.95;42.34;;
69619;Laerm;57653;51.434;5.984;2022-07-06T00:40:41;39.35;36.43;42.01;;
69619;Laerm;57653;51.434;5.984;2022-07-06T00:40:52;39.14;36.70;41.89;;
69619;Laerm;57653;51.434;5.984;2022-07-06T00:41:02;39.70;36.96;42.84;;
69619;Laerm;57653;51.434;5.984;2022-07-06T00:41:12;39.03;36.03;41.98;;
69619;Laerm;57653;51.434;5.984;2022-07-06T00:41:23;38.93;35.53;41.95;;
69619;Laerm;57653;51.434;5.984;2022-07-06T00:41:33;39.09;36.13;41.67;;
69619;Laerm;57653;51.434;5.984;2022-07-06T00:41:43;38.72;35.68;42.04;;
69619;Laerm;57653;51.434;5.984;2022-07-06T00:41:54;39.36;37.37;41.82;;
69619;Laerm;57653;51.434;5.984;2022-07-06T00:42:05;39.23;36.78;42.35;;
69619;Laerm;57653;51.434;5.984;2022-07-06T00:42:15;39.42;36.58;42.88;;
69619;Laerm;57653;51.434;5.984;2022-07-06T00:42:25;39.40;36.86;42.33;;
69619;Laerm;57653;51.434;5.984;2022-07-06T00:42:42;38.92;36.44;41.57;;
69619;Laerm;57653;51.434;5.984;2022-07-06T00:42:52;39.27;36.52;42.35;;
69619;Laerm;57653;51.434;5.984;2022-07-06T00:43:02;39.13;36.60;41.38;;
69619;Laerm;57653;51.434;5.984;2022-07-06T00:43:13;39.66;36.63;42.48;;
69619;Laerm;57653;51.434;5.984;2022-07-06T00:43:23;38.50;36.07;41.83;;
69619;Laerm;57653;51.434;5.984;2022-07-06T00:43:50;38.59;36.06;41.21;;
69619;Laerm;57653;51.434;5.984;2022-07-06T00:44:00;38.99;35.81;42.82;;
69619;Laerm;57653;51.434;5.984;2022-07-06T00:44:10;39.40;36.73;42.45;;
69619;Laerm;57653;51.434;5.984;2022-07-06T00:44:21;39.24;36.46;42.85;;
69619;Laerm;57653;51.434;5.984;2022-07-06T00:44:31;40.02;37.08;42.74;;
69619;Laerm;57653;51.434;5.984;2022-07-06T00:44:43;40.37;36.28;44.00;;
69619;Laerm;57653;51.434;5.984;2022-07-06T00:44:53;39.52;36.63;42.26;;
69619;Laerm;57653;51.434;5.984;2022-07-06T00:45:03;39.77;37.20;43.17;;
69619;Laerm;57653;51.434;5.984;2022-07-06T00:45:15;39.90;36.34;43.59;;
69619;Laerm;57653;51.434;5.984;2022-07-06T00:45:26;39.52;36.86;42.33;;
69619;Laerm;57653;51.434;5.984;2022-07-06T00:45:36;39.71;36.70;42.87;;
69619;Laerm;57653;51.434;5.984;2022-07-06T00:45:46;40.15;37.34;43.70;;
69619;Laerm;57653;51.434;5.984;2022-07-06T00:45:56;39.79;36.39;48.61;;
69619;Laerm;57653;51.434;5.984;2022-07-06T00:46:09;39.30;36.85;42.09;;
69619;Laerm;57653;51.434;5.984;2022-07-06T00:46:19;39.68;36.57;42.93;;
69619;Laerm;57653;51.434;5.984;2022-07-06T00:46:31;39.55;36.27;42.75;;
69619;Laerm;57653;51.434;5.984;2022-07-06T00:46:41;38.74;35.60;42.75;;
69619;Laerm;57653;51.434;5.984;2022-07-06T00:46:52;39.79;36.13;43.23;;
69619;Laerm;57653;51.434;5.984;2022-07-06T00:47:02;39.63;36.32;42.30;;
69619;Laerm;57653;51.434;5.984;2022-07-06T00:47:12;39.11;35.16;42.13;;
69619;Laerm;57653;51.434;5.984;2022-07-06T00:47:22;39.06;36.38;42.28;;
69619;Laerm;57653;51.434;5.984;2022-07-06T00:47:33;38.65;36.37;41.98;;
69619;Laerm;57653;51.434;5.984;2022-07-06T00:47:43;39.06;36.08;42.19;;
69619;Laerm;57653;51.434;5.984;2022-07-06T00:47:54;39.30;36.42;43.74;;
69619;Laerm;57653;51.434;5.984;2022-07-06T00:48:04;39.43;36.99;41.99;;
69619;Laerm;57653;51.434;5.984;2022-07-06T00:48:15;38.94;35.46;42.44;;
69619;Laerm;57653;51.434;5.984;2022-07-06T00:48:25;38.39;34.72;45.38;;
69619;Laerm;57653;51.434;5.984;2022-07-06T00:48:35;39.03;35.27;42.71;;
69619;Laerm;57653;51.434;5.984;2022-07-06T00:48:45;39.90;36.28;42.94;;
69619;Laerm;57653;51.434;5.984;2022-07-06T00:48:56;38.70;36.56;42.16;;
69619;Laerm;57653;51.434;5.984;2022-07-06T00:49:06;39.59;36.63;43.42;;
69619;Laerm;57653;51.434;5.984;2022-07-06T00:49:36;39.31;35.75;44.47;;
69619;Laerm;57653;51.434;5.984;2022-07-06T00:50:06;39.09;35.60;43.66;;
69619;Laerm;57653;51.434;5.984;2022-07-06T00:50:25;38.53;35.02;47.30;;
69619;Laerm;57653;51.434;5.984;2022-07-06T00:50:38;38.69;35.75;42.84;;
69619;Laerm;57653;51.434;5.984;2022-07-06T00:50:48;39.39;35.11;43.54;;
69619;Laerm;57653;51.434;5.984;2022-07-06T00:50:59;38.90;35.85;42.31;;
69619;Laerm;57653;51.434;5.984;2022-07-06T00:51:09;38.67;36.31;41.47;;
69619;Laerm;57653;51.434;5.984;2022-07-06T00:51:21;38.77;36.08;42.31;;
69619;Laerm;57653;51.434;5.984;2022-07-06T00:51:33;38.72;36.00;42.88;;
69619;Laerm;57653;51.434;5.984;2022-07-06T00:51:45;39.02;35.80;42.08;;
69619;Laerm;57653;51.434;5.984;2022-07-06T00:51:56;39.41;35.58;43.35;;
69619;Laerm;57653;51.434;5.984;2022-07-06T00:52:07;39.98;36.32;43.01;;
69619;Laerm;57653;51.434;5.984;2022-07-06T00:52:18;39.02;36.30;41.72;;
69619;Laerm;57653;51.434;5.984;2022-07-06T00:52:28;38.71;35.42;42.40;;
69619;Laerm;57653;51.434;5.984;2022-07-06T00:52:39;39.15;35.45;42.93;;
69619;Laerm;57653;51.434;5.984;2022-07-06T00:52:56;38.96;35.05;43.06;;
69619;Laerm;57653;51.434;5.984;2022-07-06T00:53:06;39.00;36.09;42.28;;
69619;Laerm;57653;51.434;5.984;2022-07-06T00:53:18;38.65;35.95;42.06;;
69619;Laerm;57653;51.434;5.984;2022-07-06T00:53:28;38.75;36.14;41.92;;
69619;Laerm;57653;51.434;5.984;2022-07-06T00:53:38;39.27;36.61;42.28;;
69619;Laerm;57653;51.434;5.984;2022-07-06T00:53:50;40.42;35.87;44.06;;
69619;Laerm;57653;51.434;5.984;2022-07-06T00:54:02;39.28;35.67;44.25;;
69619;Laerm;57653;51.434;5.984;2022-07-06T00:54:13;39.55;35.87;43.75;;
69619;Laerm;57653;51.434;5.984;2022-07-06T00:54:23;39.20;35.85;42.94;;
69619;Laerm;57653;51.434;5.984;2022-07-06T00:54:34;40.03;35.14;44.04;;
69619;Laerm;57653;51.434;5.984;2022-07-06T00:54:44;38.03;35.70;40.60;;
69619;Laerm;57653;51.434;5.984;2022-07-06T00:54:55;38.37;35.53;41.86;;
69619;Laerm;57653;51.434;5.984;2022-07-06T00:55:05;37.66;35.43;40.08;;
69619;Laerm;57653;51.434;5.984;2022-07-06T00:55:17;38.21;35.27;42.63;;
69619;Laerm;57653;51.434;5.984;2022-07-06T00:55:30;37.90;34.89;41.73;;
69619;Laerm;57653;51.434;5.984;2022-07-06T00:55:40;37.78;35.58;39.87;;
69619;Laerm;57653;51.434;5.984;2022-07-06T00:55:51;37.82;35.12;40.83;;
69619;Laerm;57653;51.434;5.984;2022-07-06T00:56:01;38.14;35.59;40.35;;
69619;Laerm;57653;51.434;5.984;2022-07-06T00:56:11;42.16;36.16;50.80;;
69619;Laerm;57653;51.434;5.984;2022-07-06T00:56:21;38.26;35.18;41.53;;
69619;Laerm;57653;51.434;5.984;2022-07-06T00:56:32;38.61;35.78;41.49;;
69619;Laerm;57653;51.434;5.984;2022-07-06T00:56:44;38.17;35.66;41.44;;
69619;Laerm;57653;51.434;5.984;2022-07-06T00:56:54;38.40;36.40;41.07;;
69619;Laerm;57653;51.434;5.984;2022-07-06T00:57:05;38.72;36.27;40.90;;
69619;Laerm;57653;51.434;5.984;2022-07-06T00:57:16;38.20;35.86;41.44;;
69619;Laerm;57653;51.434;5.984;2022-07-06T00:57:26;38.75;36.20;42.04;;
69619;Laerm;57653;51.434;5.984;2022-07-06T00:57:36;38.97;36.91;41.63;;
69619;Laerm;57653;51.434;5.984;2022-07-06T00:57:47;39.10;35.89;41.93;;
69619;Laerm;57653;51.434;5.984;2022-07-06T00:57:58;38.40;34.86;41.63;;
69619;Laerm;57653;51.434;5.984;2022-07-06T00:58:10;38.92;36.24;41.56;;
69619;Laerm;57653;51.434;5.984;2022-07-06T00:58:21;38.63;35.43;41.43;;
69619;Laerm;57653;51.434;5.984;2022-07-06T00:58:31;38.99;36.07;42.12;;
69619;Laerm;57653;51.434;5.984;2022-07-06T00:58:41;38.95;36.61;42.12;;
69619;Laerm;57653;51.434;5.984;2022-07-06T00:58:52;39.41;36.60;43.11;;
69619;Laerm;57653;51.434;5.984;2022-07-06T00:59:02;39.16;36.63;42.39;;
69619;Laerm;57653;51.434;5.984;2022-07-06T00:59:12;39.06;36.83;41.88;;
69619;Laerm;57653;51.434;5.984;2022-07-06T00:59:23;39.99;36.87;43.19;;
69619;Laerm;57653;51.434;5.984;2022-07-06T00:59:33;39.73;36.92;42.36;;
69619;Laerm;57653;51.434;5.984;2022-07-06T00:59:43;40.04;36.24;42.68;;
69619;Laerm;57653;51.434;5.984;2022-07-06T00:59:54;40.10;37.01;42.62;;